Washington, District of Columbia
Traffic Map
Current Weather Conditions
Washington, District of Columbia
Broken Clouds
Broken Clouds

Feels Like: 4°
Wind Chill: Ceiling: 19000
Heat Index: Visibility: 10mi
Dew Point: Wind: 7mph
Humidity: 85% Direction: 310° (NW)
Pressure: 30.01in Gusts: 0mph
Raw Report DataKDCA 071252Z 31006KT 10SM FEW045 BKN190 07/04 A3001 RMK AO2 SLP163 T00670044
Traffic Incident Summary
Active as of:
Severity:
Category:
InformationThere was an issue retrieving the traffic information for this location. Please try a different location or try again shortly.
Advertisements
Track Severe Weather on mobile